sensor_id;sensor_type;location;lat;lon;timestamp;P1;durP1;ratioP1;P2;durP2;ratioP2
41687;SDS011;27371;42.686;23.362;2022-10-23T00:02:22;34.47;;;21.60;;
41687;SDS011;27371;42.686;23.362;2022-10-23T00:04:51;39.97;;;22.00;;
41687;SDS011;27371;42.686;23.362;2022-10-23T00:07:17;35.50;;;22.10;;
41687;SDS011;27371;42.686;23.362;2022-10-23T00:09:42;32.53;;;21.60;;
41687;SDS011;27371;42.686;23.362;2022-10-23T00:12:09;39.33;;;22.80;;
41687;SDS011;27371;42.686;23.362;2022-10-23T00:14:34;36.40;;;22.63;;
41687;SDS011;27371;42.686;23.362;2022-10-23T00:17:00;31.55;;;22.20;;
41687;SDS011;27371;42.686;23.362;2022-10-23T00:19:25;34.92;;;21.88;;
41687;SDS011;27371;42.686;23.362;2022-10-23T00:21:50;35.40;;;21.95;;
41687;SDS011;27371;42.686;23.362;2022-10-23T00:24:16;31.63;;;17.90;;
41687;SDS011;27371;42.686;23.362;2022-10-23T00:26:41;30.10;;;18.90;;
41687;SDS011;27371;42.686;23.362;2022-10-23T00:29:07;32.72;;;19.05;;
41687;SDS011;27371;42.686;23.362;2022-10-23T00:31:33;28.40;;;18.30;;
41687;SDS011;27371;42.686;23.362;2022-10-23T00:33:59;28.75;;;17.65;;
41687;SDS011;27371;42.686;23.362;2022-10-23T00:36:25;29.63;;;15.35;;
41687;SDS011;27371;42.686;23.362;2022-10-23T00:38:51;26.67;;;15.35;;
41687;SDS011;27371;42.686;23.362;2022-10-23T00:41:18;22.23;;;14.75;;
41687;SDS011;27371;42.686;23.362;2022-10-23T00:46:23;22.10;;;15.30;;
41687;SDS011;27371;42.686;23.362;2022-10-23T00:48:48;30.02;;;16.85;;
41687;SDS011;27371;42.686;23.362;2022-10-23T00:51:14;22.85;;;14.27;;
41687;SDS011;27371;42.686;23.362;2022-10-23T00:53:39;22.10;;;14.57;;
41687;SDS011;27371;42.686;23.362;2022-10-23T00:56:06;22.05;;;15.80;;
41687;SDS011;27371;42.686;23.362;2022-10-23T00:58:31;21.80;;;14.73;;
41687;SDS011;27371;42.686;23.362;2022-10-23T01:00:57;26.30;;;15.30;;
41687;SDS011;27371;42.686;23.362;2022-10-23T01:03:24;34.53;;;20.55;;
41687;SDS011;27371;42.686;23.362;2022-10-23T01:06:12;41.63;;;25.38;;
41687;SDS011;27371;42.686;23.362;2022-10-23T01:11:39;44.25;;;27.33;;
41687;SDS011;27371;42.686;23.362;2022-10-23T01:14:14;38.50;;;24.90;;
41687;SDS011;27371;42.686;23.362;2022-10-23T01:24:53;32.15;;;21.05;;
41687;SDS011;27371;42.686;23.362;2022-10-23T01:27:23;32.28;;;19.85;;
41687;SDS011;27371;42.686;23.362;2022-10-23T01:35:26;29.48;;;18.88;;
41687;SDS011;27371;42.686;23.362;2022-10-23T01:41:11;29.35;;;19.50;;
41687;SDS011;27371;42.686;23.362;2022-10-23T01:43:45;29.85;;;20.85;;
41687;SDS011;27371;42.686;23.362;2022-10-23T01:46:21;29.42;;;19.15;;
41687;SDS011;27371;42.686;23.362;2022-10-23T01:48:51;29.38;;;20.23;;
41687;SDS011;27371;42.686;23.362;2022-10-23T01:51:19;29.73;;;20.17;;
41687;SDS011;27371;42.686;23.362;2022-10-23T01:53:49;26.30;;;18.83;;
41687;SDS011;27371;42.686;23.362;2022-10-23T01:56:21;24.95;;;18.77;;
41687;SDS011;27371;42.686;23.362;2022-10-23T01:58:52;28.65;;;19.15;;
41687;SDS011;27371;42.686;23.362;2022-10-23T02:01:20;29.27;;;18.65;;
41687;SDS011;27371;42.686;23.362;2022-10-23T02:03:49;30.73;;;17.58;;
41687;SDS011;27371;42.686;23.362;2022-10-23T02:06:17;33.45;;;17.95;;
41687;SDS011;27371;42.686;23.362;2022-10-23T02:08:42;26.73;;;17.80;;
41687;SDS011;27371;42.686;23.362;2022-10-23T02:11:12;23.88;;;17.60;;
41687;SDS011;27371;42.686;23.362;2022-10-23T02:13:45;25.73;;;17.80;;
41687;SDS011;27371;42.686;23.362;2022-10-23T02:19:14;27.83;;;17.10;;
41687;SDS011;27371;42.686;23.362;2022-10-23T02:24:19;22.42;;;15.35;;
41687;SDS011;27371;42.686;23.362;2022-10-23T02:26:55;25.35;;;16.02;;
41687;SDS011;27371;42.686;23.362;2022-10-23T02:29:26;23.80;;;15.77;;
41687;SDS011;27371;42.686;23.362;2022-10-23T02:31:57;23.88;;;15.52;;
41687;SDS011;27371;42.686;23.362;2022-10-23T02:34:23;25.38;;;15.70;;
41687;SDS011;27371;42.686;23.362;2022-10-23T02:36:48;24.23;;;14.82;;
41687;SDS011;27371;42.686;23.362;2022-10-23T02:39:14;26.02;;;16.00;;
41687;SDS011;27371;42.686;23.362;2022-10-23T02:47:13;22.00;;;14.18;;
41687;SDS011;27371;42.686;23.362;2022-10-23T02:52:43;21.75;;;13.35;;
41687;SDS011;27371;42.686;23.362;2022-10-23T03:02:10;19.48;;;13.80;;
41687;SDS011;27371;42.686;23.362;2022-10-23T03:04:33;22.23;;;14.18;;
41687;SDS011;27371;42.686;23.362;2022-10-23T03:07:01;23.60;;;13.95;;
41687;SDS011;27371;42.686;23.362;2022-10-23T03:09:27;23.42;;;13.23;;
41687;SDS011;27371;42.686;23.362;2022-10-23T03:11:52;19.88;;;12.82;;
41687;SDS011;27371;42.686;23.362;2022-10-23T03:14:18;20.23;;;13.05;;
41687;SDS011;27371;42.686;23.362;2022-10-23T03:16:43;23.40;;;15.50;;
41687;SDS011;27371;42.686;23.362;2022-10-23T03:19:10;20.90;;;14.45;;
41687;SDS011;27371;42.686;23.362;2022-10-23T03:21:36;27.60;;;14.80;;
41687;SDS011;27371;42.686;23.362;2022-10-23T03:24:01;20.20;;;15.10;;
41687;SDS011;27371;42.686;23.362;2022-10-23T03:26:27;19.85;;;14.70;;
41687;SDS011;27371;42.686;23.362;2022-10-23T03:28:52;24.38;;;14.63;;
41687;SDS011;27371;42.686;23.362;2022-10-23T03:31:18;18.70;;;14.38;;
41687;SDS011;27371;42.686;23.362;2022-10-23T03:33:43;22.95;;;14.10;;
41687;SDS011;27371;42.686;23.362;2022-10-23T03:36:09;23.52;;;14.85;;
41687;SDS011;27371;42.686;23.362;2022-10-23T03:38:34;27.00;;;14.93;;
41687;SDS011;27371;42.686;23.362;2022-10-23T03:41:00;25.73;;;15.45;;
41687;SDS011;27371;42.686;23.362;2022-10-23T03:43:25;21.80;;;13.77;;
41687;SDS011;27371;42.686;23.362;2022-10-23T03:45:51;25.45;;;14.43;;
41687;SDS011;27371;42.686;23.362;2022-10-23T03:48:16;23.60;;;13.38;;
41687;SDS011;27371;42.686;23.362;2022-10-23T03:50:42;26.17;;;13.68;;
41687;SDS011;27371;42.686;23.362;2022-10-23T03:53:07;19.75;;;13.15;;
41687;SDS011;27371;42.686;23.362;2022-10-23T03:55:33;20.88;;;12.60;;
41687;SDS011;27371;42.686;23.362;2022-10-23T03:57:58;24.17;;;12.27;;
41687;SDS011;27371;42.686;23.362;2022-10-23T04:00:24;21.55;;;12.18;;
41687;SDS011;27371;42.686;23.362;2022-10-23T04:02:49;20.98;;;11.35;;
41687;SDS011;27371;42.686;23.362;2022-10-23T04:05:15;18.13;;;10.57;;
41687;SDS011;27371;42.686;23.362;2022-10-23T04:07:40;19.25;;;12.40;;
41687;SDS011;27371;42.686;23.362;2022-10-23T04:10:06;15.07;;;10.98;;
41687;SDS011;27371;42.686;23.362;2022-10-23T04:12:32;17.17;;;10.60;;
41687;SDS011;27371;42.686;23.362;2022-10-23T04:14:57;15.70;;;10.73;;
41687;SDS011;27371;42.686;23.362;2022-10-23T04:17:23;18.65;;;10.75;;
41687;SDS011;27371;42.686;23.362;2022-10-23T04:19:48;18.42;;;9.25;;
41687;SDS011;27371;42.686;23.362;2022-10-23T04:22:14;14.75;;;7.80;;
41687;SDS011;27371;42.686;23.362;2022-10-23T04:24:40;17.02;;;8.43;;
41687;SDS011;27371;42.686;23.362;2022-10-23T04:27:10;21.42;;;9.38;;
41687;SDS011;27371;42.686;23.362;2022-10-23T04:29:36;16.02;;;7.90;;
41687;SDS011;27371;42.686;23.362;2022-10-23T04:32:02;14.15;;;8.30;;
41687;SDS011;27371;42.686;23.362;2022-10-23T04:34:27;15.65;;;9.25;;
41687;SDS011;27371;42.686;23.362;2022-10-23T04:36:53;14.50;;;8.63;;
41687;SDS011;27371;42.686;23.362;2022-10-23T04:39:18;21.20;;;10.18;;
41687;SDS011;27371;42.686;23.362;2022-10-23T04:41:44;16.50;;;8.45;;
41687;SDS011;27371;42.686;23.362;2022-10-23T04:44:09;16.17;;;10.45;;
41687;SDS011;27371;42.686;23.362;2022-10-23T04:46:35;18.40;;;10.02;;
41687;SDS011;27371;42.686;23.362;2022-10-23T04:49:00;17.73;;;10.15;;
41687;SDS011;27371;42.686;23.362;2022-10-23T04:51:26;17.40;;;10.25;;
41687;SDS011;27371;42.686;23.362;2022-10-23T04:53:51;18.30;;;10.57;;
41687;SDS011;27371;42.686;23.362;2022-10-23T04:56:17;15.63;;;10.85;;
41687;SDS011;27371;42.686;23.362;2022-10-23T04:58:44;21.20;;;10.75;;
41687;SDS011;27371;42.686;23.362;2022-10-23T05:01:10;20.70;;;11.00;;
41687;SDS011;27371;42.686;23.362;2022-10-23T05:03:36;18.17;;;11.43;;
41687;SDS011;27371;42.686;23.362;2022-10-23T05:06:02;26.13;;;14.90;;
41687;SDS011;27371;42.686;23.362;2022-10-23T05:08:28;27.48;;;15.73;;
41687;SDS011;27371;42.686;23.362;2022-10-23T05:10:54;18.30;;;10.23;;
41687;SDS011;27371;42.686;23.362;2022-10-23T05:13:19;17.85;;;9.45;;
41687;SDS011;27371;42.686;23.362;2022-10-23T05:15:48;22.38;;;9.23;;
41687;SDS011;27371;42.686;23.362;2022-10-23T05:21:05;16.17;;;10.85;;
41687;SDS011;27371;42.686;23.362;2022-10-23T05:23:35;20.88;;;11.93;;
41687;SDS011;27371;42.686;23.362;2022-10-23T05:26:03;23.30;;;13.43;;
41687;SDS011;27371;42.686;23.362;2022-10-23T05:28:29;22.63;;;13.82;;
41687;SDS011;27371;42.686;23.362;2022-10-23T05:30:55;24.75;;;13.07;;
41687;SDS011;27371;42.686;23.362;2022-10-23T05:33:24;24.00;;;12.20;;
41687;SDS011;27371;42.686;23.362;2022-10-23T05:35:50;21.08;;;11.25;;
41687;SDS011;27371;42.686;23.362;2022-10-23T05:38:15;17.83;;;10.80;;
41687;SDS011;27371;42.686;23.362;2022-10-23T05:40:41;20.55;;;9.98;;
41687;SDS011;27371;42.686;23.362;2022-10-23T05:43:06;17.42;;;8.52;;
41687;SDS011;27371;42.686;23.362;2022-10-23T05:45:32;17.35;;;10.25;;
41687;SDS011;27371;42.686;23.362;2022-10-23T05:47:57;19.85;;;9.93;;
41687;SDS011;27371;42.686;23.362;2022-10-23T05:50:23;31.95;;;13.38;;
41687;SDS011;27371;42.686;23.362;2022-10-23T05:52:48;19.38;;;13.15;;
41687;SDS011;27371;42.686;23.362;2022-10-23T05:55:14;23.90;;;15.18;;
41687;SDS011;27371;42.686;23.362;2022-10-23T05:57:40;22.15;;;12.55;;
41687;SDS011;27371;42.686;23.362;2022-10-23T06:00:06;21.70;;;12.85;;
41687;SDS011;27371;42.686;23.362;2022-10-23T06:02:32;18.98;;;12.20;;
41687;SDS011;27371;42.686;23.362;2022-10-23T06:04:58;17.95;;;10.48;;
41687;SDS011;27371;42.686;23.362;2022-10-23T06:07:24;17.88;;;9.25;;
41687;SDS011;27371;42.686;23.362;2022-10-23T06:09:50;21.83;;;9.30;;
41687;SDS011;27371;42.686;23.362;2022-10-23T06:12:17;52.63;;;19.10;;
41687;SDS011;27371;42.686;23.362;2022-10-23T06:14:43;75.88;;;31.35;;
41687;SDS011;27371;42.686;23.362;2022-10-23T06:17:09;26.73;;;12.70;;
41687;SDS011;27371;42.686;23.362;2022-10-23T06:19:34;22.65;;;9.77;;
41687;SDS011;27371;42.686;23.362;2022-10-23T06:22:00;19.65;;;10.20;;
41687;SDS011;27371;42.686;23.362;2022-10-23T06:24:25;17.80;;;11.35;;
41687;SDS011;27371;42.686;23.362;2022-10-23T06:26:51;28.75;;;11.88;;
41687;SDS011;27371;42.686;23.362;2022-10-23T06:29:16;17.60;;;10.48;;
41687;SDS011;27371;42.686;23.362;2022-10-23T06:31:41;19.90;;;11.32;;
41687;SDS011;27371;42.686;23.362;2022-10-23T06:34:08;22.75;;;9.73;;
41687;SDS011;27371;42.686;23.362;2022-10-23T06:36:35;15.20;;;7.82;;
41687;SDS011;27371;42.686;23.362;2022-10-23T06:39:02;13.10;;;7.65;;
41687;SDS011;27371;42.686;23.362;2022-10-23T06:41:28;13.38;;;7.78;;
41687;SDS011;27371;42.686;23.362;2022-10-23T06:43:53;11.68;;;7.00;;
41687;SDS011;27371;42.686;23.362;2022-10-23T06:46:19;14.82;;;6.30;;
41687;SDS011;27371;42.686;23.362;2022-10-23T06:48:45;19.00;;;5.25;;
41687;SDS011;27371;42.686;23.362;2022-10-23T06:51:12;11.27;;;6.15;;
41687;SDS011;27371;42.686;23.362;2022-10-23T06:53:39;9.85;;;5.40;;
41687;SDS011;27371;42.686;23.362;2022-10-23T06:56:05;14.18;;;5.97;;
41687;SDS011;27371;42.686;23.362;2022-10-23T06:58:33;12.27;;;5.50;;
41687;SDS011;27371;42.686;23.362;2022-10-23T07:00:59;12.43;;;5.78;;
41687;SDS011;27371;42.686;23.362;2022-10-23T07:03:29;14.00;;;5.38;;
41687;SDS011;27371;42.686;23.362;2022-10-23T07:05:58;11.30;;;5.40;;
41687;SDS011;27371;42.686;23.362;2022-10-23T07:08:25;12.00;;;5.95;;
41687;SDS011;27371;42.686;23.362;2022-10-23T07:10:50;9.27;;;4.97;;
41687;SDS011;27371;42.686;23.362;2022-10-23T07:13:16;13.63;;;4.75;;
41687;SDS011;27371;42.686;23.362;2022-10-23T07:15:41;12.05;;;7.07;;
41687;SDS011;27371;42.686;23.362;2022-10-23T07:18:07;16.55;;;7.38;;
41687;SDS011;27371;42.686;23.362;2022-10-23T07:20:38;13.57;;;5.38;;
41687;SDS011;27371;42.686;23.362;2022-10-23T07:23:07;12.95;;;3.95;;
41687;SDS011;27371;42.686;23.362;2022-10-23T07:25:35;25.05;;;5.20;;
41687;SDS011;27371;42.686;23.362;2022-10-23T07:28:00;7.25;;;4.45;;
41687;SDS011;27371;42.686;23.362;2022-10-23T07:30:27;9.45;;;4.22;;
41687;SDS011;27371;42.686;23.362;2022-10-23T07:32:52;13.40;;;4.70;;
41687;SDS011;27371;42.686;23.362;2022-10-23T07:35:18;15.55;;;4.47;;
41687;SDS011;27371;42.686;23.362;2022-10-23T07:37:44;9.10;;;4.13;;
41687;SDS011;27371;42.686;23.362;2022-10-23T07:40:09;10.20;;;5.20;;
41687;SDS011;27371;42.686;23.362;2022-10-23T07:42:35;11.02;;;4.68;;
41687;SDS011;27371;42.686;23.362;2022-10-23T07:45:01;10.20;;;4.60;;
41687;SDS011;27371;42.686;23.362;2022-10-23T07:47:28;6.82;;;3.60;;
41687;SDS011;27371;42.686;23.362;2022-10-23T07:49:54;9.77;;;4.20;;
41687;SDS011;27371;42.686;23.362;2022-10-23T07:52:19;8.90;;;4.38;;
41687;SDS011;27371;42.686;23.362;2022-10-23T07:54:44;12.90;;;4.00;;
41687;SDS011;27371;42.686;23.362;2022-10-23T07:57:10;11.18;;;3.78;;
41687;SDS011;27371;42.686;23.362;2022-10-23T07:59:36;11.88;;;3.55;;
41687;SDS011;27371;42.686;23.362;2022-10-23T08:02:02;10.52;;;4.38;;
41687;SDS011;27371;42.686;23.362;2022-10-23T08:04:27;14.35;;;4.25;;
41687;SDS011;27371;42.686;23.362;2022-10-23T08:06:53;16.10;;;3.65;;
41687;SDS011;27371;42.686;23.362;2022-10-23T08:09:20;10.68;;;3.25;;
41687;SDS011;27371;42.686;23.362;2022-10-23T08:11:46;6.75;;;3.88;;
41687;SDS011;27371;42.686;23.362;2022-10-23T08:14:11;10.60;;;3.38;;
41687;SDS011;27371;42.686;23.362;2022-10-23T08:16:37;6.72;;;3.65;;
41687;SDS011;27371;42.686;23.362;2022-10-23T08:19:04;9.05;;;3.47;;
41687;SDS011;27371;42.686;23.362;2022-10-23T08:21:30;11.63;;;3.55;;
41687;SDS011;27371;42.686;23.362;2022-10-23T08:23:56;15.43;;;4.55;;
41687;SDS011;27371;42.686;23.362;2022-10-23T08:26:23;10.60;;;5.28;;
41687;SDS011;27371;42.686;23.362;2022-10-23T08:28:50;15.30;;;3.85;;
41687;SDS011;27371;42.686;23.362;2022-10-23T08:31:17;18.65;;;4.30;;
41687;SDS011;27371;42.686;23.362;2022-10-23T08:33:44;7.05;;;3.20;;
41687;SDS011;27371;42.686;23.362;2022-10-23T08:36:18;9.93;;;4.00;;
41687;SDS011;27371;42.686;23.362;2022-10-23T08:38:48;16.65;;;6.80;;
41687;SDS011;27371;42.686;23.362;2022-10-23T08:41:24;10.88;;;4.90;;
41687;SDS011;27371;42.686;23.362;2022-10-23T08:46:43;12.15;;;3.53;;
41687;SDS011;27371;42.686;23.362;2022-10-23T08:51:45;9.98;;;3.88;;
41687;SDS011;27371;42.686;23.362;2022-10-23T08:54:15;8.80;;;3.33;;
41687;SDS011;27371;42.686;23.362;2022-10-23T08:56:49;9.90;;;3.55;;
41687;SDS011;27371;42.686;23.362;2022-10-23T08:59:21;7.78;;;3.78;;
41687;SDS011;27371;42.686;23.362;2022-10-23T09:04:26;8.43;;;3.45;;
41687;SDS011;27371;42.686;23.362;2022-10-23T09:10:03;7.53;;;3.65;;
41687;SDS011;27371;42.686;23.362;2022-10-23T09:13:07;8.65;;;2.97;;
41687;SDS011;27371;42.686;23.362;2022-10-23T09:15:50;7.18;;;3.55;;
41687;SDS011;27371;42.686;23.362;2022-10-23T09:18:29;6.15;;;3.00;;
41687;SDS011;27371;42.686;23.362;2022-10-23T09:20:55;10.27;;;3.13;;
41687;SDS011;27371;42.686;23.362;2022-10-23T09:23:21;6.82;;;2.95;;
41687;SDS011;27371;42.686;23.362;2022-10-23T09:25:49;9.93;;;3.53;;
41687;SDS011;27371;42.686;23.362;2022-10-23T09:28:25;7.13;;;2.85;;
41687;SDS011;27371;42.686;23.362;2022-10-23T09:31:04;5.63;;;3.03;;
41687;SDS011;27371;42.686;23.362;2022-10-23T09:33:32;6.78;;;4.30;;
41687;SDS011;27371;42.686;23.362;2022-10-23T09:36:16;9.85;;;4.18;;
41687;SDS011;27371;42.686;23.362;2022-10-23T09:41:17;10.07;;;2.83;;
41687;SDS011;27371;42.686;23.362;2022-10-23T09:46:57;7.38;;;3.50;;
41687;SDS011;27371;42.686;23.362;2022-10-23T09:49:28;5.15;;;3.00;;
41687;SDS011;27371;42.686;23.362;2022-10-23T09:54:47;5.82;;;2.30;;
41687;SDS011;27371;42.686;23.362;2022-10-23T09:57:20;12.40;;;3.00;;
41687;SDS011;27371;42.686;23.362;2022-10-23T09:59:58;7.05;;;2.78;;
41687;SDS011;27371;42.686;23.362;2022-10-23T10:02:27;3.90;;;1.67;;
41687;SDS011;27371;42.686;23.362;2022-10-23T10:04:55;6.15;;;2.70;;
41687;SDS011;27371;42.686;23.362;2022-10-23T10:07:22;8.75;;;3.05;;
41687;SDS011;27371;42.686;23.362;2022-10-23T10:09:53;6.78;;;1.80;;
41687;SDS011;27371;42.686;23.362;2022-10-23T10:15:03;5.75;;;2.15;;
41687;SDS011;27371;42.686;23.362;2022-10-23T10:17:40;3.15;;;1.60;;
41687;SDS011;27371;42.686;23.362;2022-10-23T10:22:50;5.07;;;1.70;;
41687;SDS011;27371;42.686;23.362;2022-10-23T10:28:16;5.07;;;1.75;;
41687;SDS011;27371;42.686;23.362;2022-10-23T10:39:55;5.03;;;1.80;;
41687;SDS011;27371;42.686;23.362;2022-10-23T10:45:32;5.57;;;1.98;;
41687;SDS011;27371;42.686;23.362;2022-10-23T10:50:55;4.90;;;2.10;;
41687;SDS011;27371;42.686;23.362;2022-10-23T10:53:30;4.60;;;2.00;;
41687;SDS011;27371;42.686;23.362;2022-10-23T10:56:07;8.05;;;2.28;;
41687;SDS011;27371;42.686;23.362;2022-10-23T10:58:46;6.32;;;2.95;;
41687;SDS011;27371;42.686;23.362;2022-10-23T11:04:10;6.30;;;2.83;;
41687;SDS011;27371;42.686;23.362;2022-10-23T11:06:42;5.72;;;2.17;;
41687;SDS011;27371;42.686;23.362;2022-10-23T11:09:16;5.32;;;2.10;;
41687;SDS011;27371;42.686;23.362;2022-10-23T11:11:45;6.68;;;2.30;;
41687;SDS011;27371;42.686;23.362;2022-10-23T11:14:18;5.43;;;2.03;;
41687;SDS011;27371;42.686;23.362;2022-10-23T11:19:33;14.13;;;4.05;;
41687;SDS011;27371;42.686;23.362;2022-10-23T11:27:34;3.78;;;2.10;;
41687;SDS011;27371;42.686;23.362;2022-10-23T11:33:26;10.67;;;2.90;;
41687;SDS011;27371;42.686;23.362;2022-10-23T11:36:16;9.05;;;3.70;;
41687;SDS011;27371;42.686;23.362;2022-10-23T11:41:18;13.98;;;10.68;;
41687;SDS011;27371;42.686;23.362;2022-10-23T11:43:51;7.20;;;1.90;;
41687;SDS011;27371;42.686;23.362;2022-10-23T11:48:48;3.75;;;2.30;;
41687;SDS011;27371;42.686;23.362;2022-10-23T11:51:27;6.60;;;2.45;;
41687;SDS011;27371;42.686;23.362;2022-10-23T11:56:34;4.32;;;2.33;;
41687;SDS011;27371;42.686;23.362;2022-10-23T11:59:17;10.57;;;3.95;;
41687;SDS011;27371;42.686;23.362;2022-10-23T12:01:52;9.15;;;4.95;;
41687;SDS011;27371;42.686;23.362;2022-10-23T12:04:21;9.15;;;2.95;;
41687;SDS011;27371;42.686;23.362;2022-10-23T12:06:57;3.70;;;1.92;;
41687;SDS011;27371;42.686;23.362;2022-10-23T12:12:12;8.45;;;1.70;;
41687;SDS011;27371;42.686;23.362;2022-10-23T12:14:41;6.60;;;1.80;;
41687;SDS011;27371;42.686;23.362;2022-10-23T12:17:31;29.65;;;2.42;;
41687;SDS011;27371;42.686;23.362;2022-10-23T12:25:30;7.57;;;1.90;;
41687;SDS011;27371;42.686;23.362;2022-10-23T12:28:03;5.18;;;2.33;;
41687;SDS011;27371;42.686;23.362;2022-10-23T12:30:51;7.63;;;3.00;;
41687;SDS011;27371;42.686;23.362;2022-10-23T12:38:46;5.70;;;1.58;;
41687;SDS011;27371;42.686;23.362;2022-10-23T12:41:21;3.45;;;1.67;;
41687;SDS011;27371;42.686;23.362;2022-10-23T12:44:00;4.38;;;2.40;;
41687;SDS011;27371;42.686;23.362;2022-10-23T12:46:31;4.03;;;1.40;;
41687;SDS011;27371;42.686;23.362;2022-10-23T12:49:14;3.03;;;1.02;;
41687;SDS011;27371;42.686;23.362;2022-10-23T12:51:44;3.03;;;1.40;;
41687;SDS011;27371;42.686;23.362;2022-10-23T12:54:16;5.93;;;2.00;;
41687;SDS011;27371;42.686;23.362;2022-10-23T12:56:44;5.30;;;2.00;;
41687;SDS011;27371;42.686;23.362;2022-10-23T12:59:14;5.65;;;1.20;;
41687;SDS011;27371;42.686;23.362;2022-10-23T13:01:42;3.60;;;2.20;;
41687;SDS011;27371;42.686;23.362;2022-10-23T13:06:42;10.32;;;1.92;;
41687;SDS011;27371;42.686;23.362;2022-10-23T13:09:14;3.58;;;1.10;;
41687;SDS011;27371;42.686;23.362;2022-10-23T13:12:07;6.68;;;4.82;;
41687;SDS011;27371;42.686;23.362;2022-10-23T13:20:08;5.63;;;1.45;;
41687;SDS011;27371;42.686;23.362;2022-10-23T13:22:46;8.82;;;1.33;;
41687;SDS011;27371;42.686;23.362;2022-10-23T13:25:20;5.10;;;1.90;;
41687;SDS011;27371;42.686;23.362;2022-10-23T13:30:56;5.15;;;1.85;;
41687;SDS011;27371;42.686;23.362;2022-10-23T13:33:30;4.50;;;2.10;;
41687;SDS011;27371;42.686;23.362;2022-10-23T13:36:05;4.13;;;1.83;;
41687;SDS011;27371;42.686;23.362;2022-10-23T13:38:35;3.75;;;1.75;;
41687;SDS011;27371;42.686;23.362;2022-10-23T13:41:03;4.40;;;1.73;;
41687;SDS011;27371;42.686;23.362;2022-10-23T13:43:30;6.22;;;2.67;;
41687;SDS011;27371;42.686;23.362;2022-10-23T13:45:57;5.15;;;2.72;;
41687;SDS011;27371;42.686;23.362;2022-10-23T13:48:23;8.23;;;3.45;;
41687;SDS011;27371;42.686;23.362;2022-10-23T13:50:49;4.55;;;3.10;;
41687;SDS011;27371;42.686;23.362;2022-10-23T13:53:15;5.45;;;3.10;;
41687;SDS011;27371;42.686;23.362;2022-10-23T13:55:44;5.88;;;4.22;;
41687;SDS011;27371;42.686;23.362;2022-10-23T13:58:13;10.77;;;4.78;;
41687;SDS011;27371;42.686;23.362;2022-10-23T14:00:38;6.15;;;3.88;;
41687;SDS011;27371;42.686;23.362;2022-10-23T14:03:04;7.30;;;2.65;;
41687;SDS011;27371;42.686;23.362;2022-10-23T14:05:30;5.07;;;2.70;;
41687;SDS011;27371;42.686;23.362;2022-10-23T14:07:56;5.97;;;2.80;;
41687;SDS011;27371;42.686;23.362;2022-10-23T14:10:21;7.00;;;4.20;;
41687;SDS011;27371;42.686;23.362;2022-10-23T14:12:47;4.38;;;1.77;;
41687;SDS011;27371;42.686;23.362;2022-10-23T14:15:17;6.30;;;2.97;;
41687;SDS011;27371;42.686;23.362;2022-10-23T14:17:43;4.90;;;1.63;;
41687;SDS011;27371;42.686;23.362;2022-10-23T14:20:09;3.33;;;1.40;;
41687;SDS011;27371;42.686;23.362;2022-10-23T14:22:35;3.78;;;1.30;;
41687;SDS011;27371;42.686;23.362;2022-10-23T14:25:01;22.55;;;8.85;;
41687;SDS011;27371;42.686;23.362;2022-10-23T14:27:27;92.55;;;31.42;;
41687;SDS011;27371;42.686;23.362;2022-10-23T14:29:53;16.17;;;5.30;;
41687;SDS011;27371;42.686;23.362;2022-10-23T14:32:19;13.75;;;2.90;;
41687;SDS011;27371;42.686;23.362;2022-10-23T14:34:47;4.43;;;1.60;;
41687;SDS011;27371;42.686;23.362;2022-10-23T14:37:15;17.65;;;5.40;;
41687;SDS011;27371;42.686;23.362;2022-10-23T14:39:43;5.97;;;1.90;;
41687;SDS011;27371;42.686;23.362;2022-10-23T14:42:08;12.07;;;2.10;;
41687;SDS011;27371;42.686;23.362;2022-10-23T14:44:33;36.70;;;9.98;;
41687;SDS011;27371;42.686;23.362;2022-10-23T14:46:59;10.68;;;3.67;;
41687;SDS011;27371;42.686;23.362;2022-10-23T14:49:25;11.57;;;2.90;;
41687;SDS011;27371;42.686;23.362;2022-10-23T14:51:50;3.80;;;2.05;;
41687;SDS011;27371;42.686;23.362;2022-10-23T14:54:16;4.82;;;2.00;;
41687;SDS011;27371;42.686;23.362;2022-10-23T14:56:42;7.03;;;1.95;;
41687;SDS011;27371;42.686;23.362;2022-10-23T14:59:07;3.47;;;1.95;;
41687;SDS011;27371;42.686;23.362;2022-10-23T15:01:36;7.22;;;2.08;;
41687;SDS011;27371;42.686;23.362;2022-10-23T15:04:03;10.80;;;2.60;;
41687;SDS011;27371;42.686;23.362;2022-10-23T15:06:29;6.40;;;2.22;;
41687;SDS011;27371;42.686;23.362;2022-10-23T15:08:54;7.13;;;1.70;;
41687;SDS011;27371;42.686;23.362;2022-10-23T15:11:20;7.20;;;2.80;;
41687;SDS011;27371;42.686;23.362;2022-10-23T15:13:47;5.03;;;2.40;;
41687;SDS011;27371;42.686;23.362;2022-10-23T15:16:12;8.57;;;3.13;;
41687;SDS011;27371;42.686;23.362;2022-10-23T15:18:38;8.00;;;3.75;;
41687;SDS011;27371;42.686;23.362;2022-10-23T15:21:04;5.35;;;2.90;;
41687;SDS011;27371;42.686;23.362;2022-10-23T15:23:31;6.03;;;2.90;;
41687;SDS011;27371;42.686;23.362;2022-10-23T15:25:59;10.25;;;2.97;;
41687;SDS011;27371;42.686;23.362;2022-10-23T15:28:27;6.30;;;2.47;;
41687;SDS011;27371;42.686;23.362;2022-10-23T15:30:54;7.13;;;2.60;;
41687;SDS011;27371;42.686;23.362;2022-10-23T15:33:20;7.43;;;2.30;;
41687;SDS011;27371;42.686;23.362;2022-10-23T15:35:46;11.50;;;4.05;;
41687;SDS011;27371;42.686;23.362;2022-10-23T15:38:11;12.23;;;4.03;;
41687;SDS011;27371;42.686;23.362;2022-10-23T15:40:37;5.03;;;2.75;;
41687;SDS011;27371;42.686;23.362;2022-10-23T15:43:02;11.07;;;6.00;;
41687;SDS011;27371;42.686;23.362;2022-10-23T15:45:29;9.27;;;4.95;;
41687;SDS011;27371;42.686;23.362;2022-10-23T15:47:55;7.07;;;2.83;;
41687;SDS011;27371;42.686;23.362;2022-10-23T15:50:21;9.80;;;2.72;;
41687;SDS011;27371;42.686;23.362;2022-10-23T15:52:47;4.70;;;3.55;;
41687;SDS011;27371;42.686;23.362;2022-10-23T15:55:13;32.08;;;23.60;;
41687;SDS011;27371;42.686;23.362;2022-10-23T15:57:38;11.25;;;4.45;;
41687;SDS011;27371;42.686;23.362;2022-10-23T16:00:06;14.15;;;8.43;;
41687;SDS011;27371;42.686;23.362;2022-10-23T16:02:33;5.93;;;4.15;;
41687;SDS011;27371;42.686;23.362;2022-10-23T16:05:02;21.90;;;11.77;;
41687;SDS011;27371;42.686;23.362;2022-10-23T16:07:30;3.97;;;2.40;;
41687;SDS011;27371;42.686;23.362;2022-10-23T16:09:56;7.57;;;2.78;;
41687;SDS011;27371;42.686;23.362;2022-10-23T16:12:22;3.72;;;2.30;;
41687;SDS011;27371;42.686;23.362;2022-10-23T16:14:49;11.13;;;2.70;;
41687;SDS011;27371;42.686;23.362;2022-10-23T16:17:15;10.45;;;3.33;;
41687;SDS011;27371;42.686;23.362;2022-10-23T16:19:42;12.93;;;2.65;;
41687;SDS011;27371;42.686;23.362;2022-10-23T16:22:10;12.30;;;5.07;;
41687;SDS011;27371;42.686;23.362;2022-10-23T16:24:36;10.50;;;4.53;;
41687;SDS011;27371;42.686;23.362;2022-10-23T16:27:04;12.93;;;4.47;;
41687;SDS011;27371;42.686;23.362;2022-10-23T16:29:30;10.10;;;3.65;;
41687;SDS011;27371;42.686;23.362;2022-10-23T16:31:56;5.95;;;3.80;;
41687;SDS011;27371;42.686;23.362;2022-10-23T16:34:23;10.15;;;3.15;;
41687;SDS011;27371;42.686;23.362;2022-10-23T16:36:49;9.63;;;3.70;;
41687;SDS011;27371;42.686;23.362;2022-10-23T16:39:15;7.75;;;3.38;;
41687;SDS011;27371;42.686;23.362;2022-10-23T16:41:43;7.13;;;3.55;;
41687;SDS011;27371;42.686;23.362;2022-10-23T16:44:08;8.10;;;3.78;;